San Diego, CA

7:20 PM PDT on August 30, 2014 (GMT -0700)
Scripps Ranch Legacy | Change Station
CLOSE
Current Station
Personal Weather Station
Location: San Diego, CA
Elevation: 785 ft
Nearby Weather Stations

Elev 785 ft 32.93 °N, 117.06 °W | Updated 6 minutes ago

Clear
Clear
75.8 °F
Feels Like 78 °F
N
0.0
Wind Variable Wind from WNW
Gusts 2.0 mph

Today
High -- | Low -- °F
--% Chance of Precip.
Yesterday
High -- | Low -- °F
Precip. -- in
6:21 AM 7:15 PM
Waxing Crescent, 26% visible
Pressure 29.75 in
Visibility 10.0 miles
Clouds Few 2000 ft
Heat Index 78 °F
Dew Point 65 °F
Humidity 69%
Rainfall 0.00 in
Snow Depth Not available.
UV 0 out of 12
Pollen 8.10 out of 12
Ozone Good
PM2.5 Moderate
Flu Activity Not available.
METAR KNKX 310155Z 29005KT 10SM FEW020 23/17 A2976 RMK AO2 SLP073 T02330172

More Conditions Fewer Conditions

Pressure 29.75 in
Visibility 10.0 miles
Clouds Few 2000 ft
Heat Index 78 °F
Dew Point 65 °F
Humidity 69%
Rainfall 0.00 in
Snow Depth Not available.
UV 0 out of 12
Pollen 8.10 out of 12
Ozone Good
PM2.5 Moderate
Flu Activity Not available.
METAR KNKX 310155Z 29005KT 10SM FEW020 23/17 A2976 RMK AO2 SLP073 T02330172

More Conditions Fewer Conditions

10-Day Weather Forecast

Almanac

Astronomy

Aug. 30, 2014 Rise Set
Actual Time 6:21 AM PDT 7:15 PM PDT
Civil Twilight 5:56 AM PDT 7:40 PM PDT
Nautical Twilight 5:26 AM PDT 8:10 PM PDT
Astronomical Twilight 4:55 AM PDT 8:41 PM PDT
Moon 10:56 AM PDT (8/30) 10:10 PM PDT (8/30)
Length of Visible Light 13h 44m
Length of Day
12h 53m
Tomorrow will be 1m 56s shorter.
Waxing Crescent, 26% of the Moon is Illuminated
Today
Waxing Crescent
Sep 2
First Quarter
Sep 8
Full
Sep 15
Last Quarter
Sep 24
New

Today's Extremes

State Highs State Lows

Community

WunderPhotos

Upload Photos

1,748,749 photos uploaded!

Nearby

Air Quality

  Air Quality AQ Index Pollutant
Yesterday Good
PM2.5
Yesterday Good
OZONE
Current Moderate
PM2.5
Current Good
OZONE
Saturday Moderate
PM2.5
Saturday Moderate
OZONE
Sunday Moderate
PM2.5
Sunday Good
OZONE
Monday Good
PM2.5
Monday Good
OZONE

Snow Depth

Station Depth Elevation
Leavitt Meadows 0 in 7200 ft
Summit Meadow 0 in 9122 ft
Monitor Pass 0 in 8350 ft
Hagan's Meadow 0 in 8000 ft
Rubicon #2 0 in 7500 ft

Earthquake Activity

City Distance Mag. Time & Date
No recent earthquake activity has been reported nearby.
Minimum magnitude displayed is 2.5.

Coastal Water Temperatures

Place Temperature
La Jolla, CA 70.0 °F
San Diego, CA 75.0 °F

Nearby Weather Stations